Time;durP1;ratioP1;P1;durP2;ratioP2;P2;SDS_P1;SDS_P2;PMS_P1;PMS_P2;Temp;Humidity;BMP_temperature;BMP_pressure;BME280_temperature;BME280_humidity;BME280_pressure;Samples;Min_cycle;Max_cycle;Signal;HPM_P1;HPM_P2
2022/04/06 00:01:45;;;;;;;32.03;13.98;;;8.80;99.90;;;;;;5042857;28;20572;-90
2022/04/06 00:04:11;;;;;;;34.70;14.63;;;8.80;99.90;;;;;;5060923;28;20044;-92
2022/04/06 00:06:37;;;;;;;29.73;13.93;;;8.80;99.90;;;;;;5041671;28;20282;-90
2022/04/06 00:09:04;;;;;;;39.08;14.65;;;8.70;99.90;;;;;;5059533;28;20048;-92
2022/04/06 00:11:30;;;;;;;33.13;13.98;;;8.80;99.90;;;;;;5035854;28;20052;-90
2022/04/06 00:13:57;;;;;;;28.25;14.00;;;8.80;99.90;;;;;;5059830;28;20151;-90
2022/04/06 00:16:23;;;;;;;34.40;15.68;;;8.80;99.90;;;;;;5040838;28;20051;-90
2022/04/06 00:18:48;;;;;;;33.58;15.48;;;8.80;99.90;;;;;;5043535;28;20048;-91
2022/04/06 00:21:14;;;;;;;33.22;13.73;;;8.70;99.90;;;;;;5043161;28;20040;-90
2022/04/06 00:23:40;;;;;;;29.95;14.50;;;8.80;99.90;;;;;;5058315;28;20044;-90
2022/04/06 00:26:06;;;;;;;41.30;15.30;;;8.80;99.90;;;;;;5060248;28;20040;-90
2022/04/06 00:28:32;;;;;;;34.30;15.00;;;8.70;99.90;;;;;;5044057;28;20046;-90
2022/04/06 00:30:58;;;;;;;32.80;14.05;;;8.70;99.90;;;;;;5041782;28;20045;-91
2022/04/06 00:33:24;;;;;;;33.22;14.60;;;8.80;99.90;;;;;;5039524;28;20200;-91
2022/04/06 00:35:53;;;;;;;39.13;14.90;;;8.80;99.90;;;;;;5058926;28;20271;-91
2022/04/06 00:38:18;;;;;;;33.65;15.32;;;8.80;99.90;;;;;;5058290;28;20349;-90
2022/04/06 00:40:44;;;;;;;34.63;14.95;;;8.80;99.90;;;;;;5045507;28;20045;-92
2022/04/06 00:43:12;;;;;;;29.10;14.48;;;8.80;99.90;;;;;;5044355;28;20079;-91
2022/04/06 00:45:45;;;;;;;34.60;14.65;;;8.80;99.90;;;;;;5045311;28;20626;-91
2022/04/06 00:48:11;;;;;;;33.20;14.77;;;8.70;99.90;;;;;;5076542;28;20060;-91
2022/04/06 00:50:42;;;;;;;28.27;13.63;;;8.70;99.90;;;;;;5044144;28;20043;-90
2022/04/06 00:53:08;;;;;;;33.83;14.85;;;8.80;99.90;;;;;;5043148;28;20331;-91
2022/04/06 00:55:40;;;;;;;28.90;14.57;;;8.70;99.90;;;;;;5041906;28;20051;-92
2022/04/06 00:58:08;;;;;;;39.47;14.75;;;8.70;99.90;;;;;;5044498;28;20135;-90
2022/04/06 01:00:34;;;;;;;29.13;14.52;;;8.70;99.90;;;;;;5043979;28;20052;-90
2022/04/06 01:03:00;;;;;;;34.95;14.63;;;8.80;99.90;;;;;;5041117;28;20033;-92
2022/04/06 01:05:26;;;;;;;33.65;15.05;;;8.80;99.90;;;;;;5041522;28;20040;-91
2022/04/06 01:07:55;;;;;;;35.17;14.68;;;8.80;99.90;;;;;;5041703;28;20479;-91
2022/04/06 01:10:20;;;;;;;36.15;14.55;;;8.80;99.90;;;;;;5044270;28;20098;-91
2022/04/06 01:12:47;;;;;;;29.30;13.02;;;8.80;99.90;;;;;;5042868;28;20036;-91
2022/04/06 01:15:14;;;;;;;37.88;14.05;;;8.80;99.90;;;;;;5043357;28;20048;-90
2022/04/06 01:17:43;;;;;;;28.15;12.77;;;8.80;99.90;;;;;;5042740;28;20139;-90
2022/04/06 01:27:10;;;;;;;27.58;11.25;;;8.90;99.90;;;;;;4988233;28;20041;-90
2022/04/06 01:29:37;;;;;;;26.58;12.25;;;8.90;99.90;;;;;;5041443;28;20032;-90
2022/04/06 01:32:35;;;;;;;26.17;11.65;;;8.90;99.90;;;;;;5058963;28;20135;-90
2022/04/06 01:35:00;;;;;;;29.70;11.65;;;8.90;99.90;;;;;;5043637;28;20040;-90
2022/04/06 01:37:28;;;;;;;30.33;11.90;;;8.90;99.90;;;;;;5058556;28;20037;-90
2022/04/06 01:39:54;;;;;;;27.70;10.20;;;8.90;99.90;;;;;;5042446;28;20052;-90
2022/04/06 01:42:21;;;;;;;27.45;11.35;;;8.90;99.90;;;;;;5043980;28;20036;-91
2022/04/06 01:44:51;;;;;;;28.13;11.30;;;8.90;99.90;;;;;;5042969;28;20119;-91
2022/04/06 01:47:19;;;;;;;23.25;9.52;;;8.90;99.90;;;;;;5042648;28;20046;-91
2022/04/06 01:52:30;;;;;;;25.65;10.07;;;9.00;99.90;;;;;;5058285;28;20076;-90
2022/04/06 01:55:09;;;;;;;19.88;9.48;;;8.90;99.90;;;;;;5041414;28;20098;-91
2022/04/06 01:57:39;;;;;;;24.00;9.60;;;8.90;99.90;;;;;;5033333;28;20041;-91
2022/04/06 02:00:09;;;;;;;26.17;9.57;;;9.00;99.90;;;;;;5041894;28;20048;-90
2022/04/06 02:02:37;;;;;;;25.67;9.02;;;8.90;99.90;;;;;;5051888;28;20033;-90
2022/04/06 02:05:03;;;;;;;22.25;9.40;;;8.90;99.90;;;;;;5049315;28;20139;-91
2022/04/06 02:07:29;;;;;;;22.10;9.15;;;9.00;99.90;;;;;;5050349;28;20205;-90
2022/04/06 02:09:58;;;;;;;21.83;8.43;;;8.90;99.90;;;;;;5056461;28;20127;-90
2022/04/06 02:12:24;;;;;;;22.70;9.00;;;9.00;99.90;;;;;;5041775;28;20048;-91
2022/04/06 02:14:50;;;;;;;19.80;8.45;;;9.00;99.90;;;;;;5059168;28;20531;-90
2022/04/06 02:17:16;;;;;;;24.23;8.80;;;9.00;99.90;;;;;;5039439;28;20036;-90
2022/04/06 02:19:42;;;;;;;20.15;7.90;;;8.90;99.90;;;;;;5056981;28;20044;-90
2022/04/06 02:22:08;;;;;;;20.60;9.02;;;9.00;99.90;;;;;;5041030;28;20049;-91
2022/04/06 02:24:35;;;;;;;15.15;8.23;;;9.00;99.90;;;;;;5056936;28;20037;-90
2022/04/06 02:27:01;;;;;;;15.38;7.38;;;9.00;99.90;;;;;;5057427;28;20078;-91
2022/04/06 02:29:28;;;;;;;16.50;7.47;;;9.00;99.90;;;;;;5056979;28;20036;-90
2022/04/06 02:31:53;;;;;;;19.27;7.90;;;9.00;99.90;;;;;;5041751;28;20040;-90
2022/04/06 02:34:22;;;;;;;12.93;6.63;;;9.00;99.90;;;;;;5059071;28;20044;-90
2022/04/06 02:36:48;;;;;;;15.95;6.65;;;8.90;99.90;;;;;;5041407;28;20044;-90
2022/04/06 02:39:13;;;;;;;19.38;7.53;;;8.90;99.90;;;;;;5054396;28;20530;-90
2022/04/06 02:41:39;;;;;;;15.70;7.22;;;9.00;99.90;;;;;;5041284;28;20036;-91
2022/04/06 02:44:05;;;;;;;11.40;6.10;;;8.90;99.90;;;;;;5057890;28;20377;-90
2022/04/06 02:46:34;;;;;;;11.80;5.95;;;9.00;99.90;;;;;;5057940;28;20109;-90
2022/04/06 02:49:00;;;;;;;14.35;5.43;;;9.00;99.90;;;;;;5056941;28;20404;-91
2022/04/06 02:51:25;;;;;;;13.68;5.20;;;8.90;99.90;;;;;;5054198;28;20063;-89
2022/04/06 02:53:51;;;;;;;13.55;5.28;;;8.90;99.90;;;;;;5055360;28;20079;-90
2022/04/06 02:56:17;;;;;;;14.57;5.28;;;9.00;99.90;;;;;;5042240;28;20492;-91
2022/04/06 02:58:43;;;;;;;9.25;4.28;;;9.00;99.90;;;;;;5055766;28;20476;-90
2022/04/06 03:01:09;;;;;;;10.98;4.72;;;8.90;99.90;;;;;;5039805;28;20045;-91
2022/04/06 03:03:34;;;;;;;12.93;5.13;;;8.90;99.90;;;;;;5042536;28;20032;-90
2022/04/06 03:06:03;;;;;;;9.10;3.85;;;8.90;99.90;;;;;;5058816;28;20071;-92
2022/04/06 03:08:29;;;;;;;10.57;4.30;;;8.90;99.90;;;;;;5057012;28;20063;-91
2022/04/06 03:10:55;;;;;;;12.40;4.10;;;8.90;99.90;;;;;;5041527;28;20040;-90
2022/04/06 03:13:20;;;;;;;11.88;4.50;;;8.90;99.90;;;;;;5057208;28;20044;-89
2022/04/06 03:15:46;;;;;;;10.57;4.07;;;8.80;99.90;;;;;;5058387;28;20045;-91
2022/04/06 03:18:12;;;;;;;10.38;4.88;;;8.90;99.90;;;;;;5058544;28;20294;-91
2022/04/06 03:20:41;;;;;;;12.18;4.60;;;8.90;99.90;;;;;;5046858;28;20060;-90
2022/04/06 03:23:07;;;;;;;13.20;3.95;;;8.90;99.90;;;;;;5044702;28;20124;-89
2022/04/06 03:25:32;;;;;;;9.68;3.90;;;8.90;99.90;;;;;;5061939;28;20124;-90
2022/04/06 03:27:58;;;;;;;10.70;4.15;;;8.90;99.90;;;;;;5061883;28;20075;-91
2022/04/06 03:30:24;;;;;;;16.17;4.78;;;8.90;99.90;;;;;;5061587;28;20040;-90
2022/04/06 03:32:50;;;;;;;14.40;4.38;;;8.90;99.90;;;;;;5062550;28;20035;-90
2022/04/06 03:35:22;;;;;;;12.25;4.82;;;8.90;99.90;;;;;;5063601;28;20075;-90
2022/04/06 03:37:49;;;;;;;12.65;4.72;;;8.90;99.90;;;;;;5060036;28;20036;-90
2022/04/06 03:40:15;;;;;;;12.52;4.70;;;8.90;99.90;;;;;;5060836;28;20036;-91
2022/04/06 03:42:40;;;;;;;11.55;4.28;;;8.90;99.90;;;;;;5046677;28;20058;-90
2022/04/06 03:45:07;;;;;;;13.40;4.00;;;8.90;99.90;;;;;;5044004;28;20301;-91
2022/04/06 03:47:34;;;;;;;12.35;4.25;;;8.80;99.90;;;;;;5060438;28;20124;-90
2022/04/06 03:50:00;;;;;;;13.75;5.20;;;8.80;99.90;;;;;;5044684;28;20047;-92
2022/04/06 03:52:27;;;;;;;15.68;5.50;;;8.80;99.90;;;;;;5058462;28;20036;-90
2022/04/06 03:54:53;;;;;;;12.70;5.50;;;8.80;99.90;;;;;;5050100;28;20074;-91
2022/04/06 03:57:19;;;;;;;15.85;6.10;;;8.80;99.90;;;;;;5060702;28;20049;-90
2022/04/06 03:59:45;;;;;;;15.75;6.28;;;8.90;99.90;;;;;;5041686;28;20438;-90
2022/04/06 04:02:11;;;;;;;18.55;6.95;;;8.90;99.90;;;;;;5058587;28;20044;-90
2022/04/06 04:04:36;;;;;;;17.10;7.30;;;8.90;99.90;;;;;;5058814;28;20526;-90
2022/04/06 04:07:08;;;;;;;23.35;8.00;;;8.90;99.90;;;;;;5060087;28;20056;-91
2022/04/06 04:09:37;;;;;;;28.55;9.27;;;8.90;99.90;;;;;;5067239;28;20432;-90
2022/04/06 04:12:04;;;;;;;24.67;8.43;;;8.90;99.90;;;;;;5061166;28;20047;-91
2022/04/06 04:14:34;;;;;;;24.02;8.93;;;8.90;99.90;;;;;;5045555;28;20033;-91
2022/04/06 04:17:01;;;;;;;20.08;9.45;;;8.90;99.90;;;;;;5041204;28;20055;-92
2022/04/06 04:19:27;;;;;;;28.40;10.38;;;9.00;99.90;;;;;;5056218;28;20048;-90
2022/04/06 04:21:53;;;;;;;24.70;9.80;;;9.00;99.90;;;;;;5044232;28;20066;-90
2022/04/06 04:24:19;;;;;;;22.20;9.32;;;9.00;99.90;;;;;;5058192;28;20032;-91
2022/04/06 04:26:44;;;;;;;21.88;9.02;;;9.00;99.90;;;;;;5046664;28;20078;-89
2022/04/06 04:29:14;;;;;;;22.17;9.63;;;9.00;99.90;;;;;;5058676;28;20407;-89
2022/04/06 04:31:39;;;;;;;24.40;9.63;;;8.90;99.90;;;;;;5059172;28;20324;-90
2022/04/06 04:34:05;;;;;;;25.60;9.68;;;9.00;99.90;;;;;;5058248;28;20577;-90
2022/04/06 04:36:31;;;;;;;31.20;10.80;;;9.00;99.90;;;;;;5060245;28;20132;-91
2022/04/06 04:38:57;;;;;;;27.40;10.70;;;9.00;99.90;;;;;;5059425;28;20116;-91
2022/04/06 04:41:23;;;;;;;22.98;10.85;;;8.90;99.90;;;;;;5044810;28;20050;-91
2022/04/06 04:43:52;;;;;;;20.10;10.30;;;8.90;99.90;;;;;;5045541;28;20043;-90
2022/04/06 04:46:19;;;;;;;25.27;9.63;;;8.80;99.90;;;;;;5044244;28;20123;-91
2022/04/06 04:48:45;;;;;;;22.35;10.32;;;8.90;99.90;;;;;;5059490;28;20123;-90
2022/04/06 04:51:11;;;;;;;21.83;9.05;;;8.90;99.90;;;;;;5055525;28;20211;-90
2022/04/06 04:53:37;;;;;;;24.60;8.73;;;8.90;99.90;;;;;;5040970;28;20064;-89
2022/04/06 04:56:03;;;;;;;19.65;8.88;;;8.80;99.90;;;;;;5040562;28;20033;-91
2022/04/06 04:58:29;;;;;;;19.38;8.75;;;8.80;99.90;;;;;;5045253;28;20051;-92
2022/04/06 05:00:58;;;;;;;20.73;8.45;;;8.80;99.90;;;;;;5051221;28;20041;-92
2022/04/06 05:03:24;;;;;;;19.92;8.35;;;8.80;99.90;;;;;;5053090;28;20391;-91
2022/04/06 05:05:53;;;;;;;21.02;8.00;;;8.70;99.90;;;;;;5059280;28;20032;-92
2022/04/06 05:08:20;;;;;;;21.88;8.15;;;8.70;99.90;;;;;;5055814;28;20056;-90
2022/04/06 05:10:48;;;;;;;23.67;7.72;;;8.70;99.90;;;;;;5058017;28;20109;-90
2022/04/06 05:13:17;;;;;;;20.67;7.53;;;8.70;99.90;;;;;;5060174;28;20235;-90
2022/04/06 05:15:43;;;;;;;15.95;7.13;;;8.60;99.90;;;;;;5042629;28;20840;-90
2022/04/06 05:18:09;;;;;;;19.42;7.05;;;8.70;99.90;;;;;;5057989;28;20045;-89
2022/04/06 05:20:35;;;;;;;17.10;6.93;;;8.70;99.90;;;;;;5057445;28;20048;-91
2022/04/06 05:23:01;;;;;;;17.48;6.85;;;8.70;99.90;;;;;;5058706;28;20496;-91
2022/04/06 05:25:29;;;;;;;17.58;6.55;;;8.70;99.90;;;;;;5043124;28;20028;-91
2022/04/06 05:28:16;;;;;;;22.92;6.97;;;8.70;99.90;;;;;;5044566;28;20116;-90
2022/04/06 05:30:42;;;;;;;20.60;6.68;;;8.70;99.90;;;;;;5056021;28;20042;-91
2022/04/06 05:33:08;;;;;;;18.02;5.80;;;8.70;99.90;;;;;;5044018;28;20058;-90
2022/04/06 05:35:38;;;;;;;15.10;5.97;;;8.60;99.90;;;;;;5043470;28;20124;-90
2022/04/06 05:38:03;;;;;;;21.30;6.57;;;8.70;99.90;;;;;;5050222;28;20047;-89
2022/04/06 05:40:29;;;;;;;17.83;5.80;;;8.70;99.90;;;;;;5051327;28;20048;-89
2022/04/06 05:42:55;;;;;;;16.27;5.97;;;8.70;99.90;;;;;;5058921;28;20032;-89
2022/04/06 05:45:21;;;;;;;16.55;5.65;;;8.60;99.90;;;;;;5057212;28;20353;-90
2022/04/06 05:47:47;;;;;;;20.38;6.03;;;8.70;99.90;;;;;;5059017;28;20033;-90
2022/04/06 05:50:17;;;;;;;15.75;5.35;;;8.70;99.90;;;;;;5057353;28;20051;-90
2022/04/06 05:52:42;;;;;;;18.75;6.35;;;8.60;99.90;;;;;;5056945;28;20036;-91
2022/04/06 05:55:11;;;;;;;14.82;5.10;;;8.70;99.90;;;;;;5039357;28;20047;-91
2022/04/06 05:57:37;;;;;;;18.50;5.35;;;8.60;99.90;;;;;;5057179;28;20429;-90
2022/04/06 06:00:06;;;;;;;16.95;5.50;;;8.70;99.90;;;;;;5059608;28;20038;-92
2022/04/06 06:02:33;;;;;;;17.75;5.88;;;8.70;99.90;;;;;;5037463;28;20041;-90
2022/04/06 06:04:59;;;;;;;16.45;5.47;;;8.60;99.90;;;;;;5055552;28;20178;-90
2022/04/06 06:07:25;;;;;;;12.48;5.18;;;8.60;99.90;;;;;;5056042;28;20039;-91
2022/04/06 06:09:50;;;;;;;12.68;4.82;;;8.60;99.90;;;;;;5042064;28;20056;-91
2022/04/06 06:12:19;;;;;;;16.83;5.28;;;8.50;99.90;;;;;;5049372;28;20048;-92
2022/04/06 06:14:45;;;;;;;16.02;5.30;;;8.60;99.90;;;;;;5041974;28;20422;-92
2022/04/06 06:17:10;;;;;;;15.70;4.97;;;8.60;99.90;;;;;;5046177;28;20499;-90
2022/04/06 06:19:36;;;;;;;15.77;5.55;;;8.50;99.90;;;;;;5057181;28;20040;-91
2022/04/06 06:22:02;;;;;;;14.75;5.10;;;8.50;99.90;;;;;;5042943;28;20037;-92
2022/04/06 06:24:28;;;;;;;16.05;5.63;;;8.50;99.90;;;;;;5040608;28;20415;-90
2022/04/06 06:26:54;;;;;;;12.40;5.38;;;8.50;99.90;;;;;;5056070;28;20037;-92
2022/04/06 06:29:20;;;;;;;15.65;4.93;;;8.50;99.90;;;;;;5057057;28;20051;-91
2022/04/06 06:31:46;;;;;;;15.93;5.00;;;8.50;99.90;;;;;;5058573;28;20036;-91
2022/04/06 06:34:12;;;;;;;9.68;5.22;;;8.50;99.90;;;;;;5041898;28;20048;-90
2022/04/06 06:36:41;;;;;;;12.15;4.95;;;8.50;99.90;;;;;;5055969;28;20094;-90
2022/04/06 06:39:06;;;;;;;10.80;4.63;;;8.60;99.90;;;;;;5042328;28;20072;-93
2022/04/06 06:41:34;;;;;;;10.27;4.40;;;8.50;99.90;;;;;;5058879;28;20091;-91
2022/04/06 06:44:01;;;;;;;12.80;4.55;;;8.50;99.90;;;;;;5058265;28;20036;-91
2022/04/06 06:46:29;;;;;;;11.20;4.70;;;8.60;99.90;;;;;;5037057;28;20028;-92
2022/04/06 06:49:08;;;;;;;14.30;3.95;;;8.60;99.90;;;;;;5043040;28;20478;-91
2022/04/06 06:51:39;;;;;;;10.57;4.40;;;8.60;99.90;;;;;;5041408;28;20181;-91
2022/04/06 06:54:05;;;;;;;9.60;3.83;;;8.70;99.90;;;;;;5033695;28;20045;-90
2022/04/06 06:56:31;;;;;;;10.65;4.32;;;8.60;99.90;;;;;;5056336;28;20059;-90
2022/04/06 06:58:59;;;;;;;13.70;4.00;;;8.80;99.90;;;;;;5035802;28;20551;-90
2022/04/06 07:01:28;;;;;;;9.00;3.63;;;8.80;99.90;;;;;;5057638;28;20048;-90
2022/04/06 07:03:53;;;;;;;11.85;3.90;;;8.80;99.90;;;;;;5040881;28;20558;-90
2022/04/06 07:06:19;;;;;;;12.55;3.60;;;8.70;99.90;;;;;;5059519;28;20040;-91
2022/04/06 07:08:45;;;;;;;9.50;3.65;;;8.70;99.90;;;;;;5041350;28;20604;-91
2022/04/06 07:11:11;;;;;;;10.15;3.88;;;8.70;99.90;;;;;;5057460;28;20506;-91
2022/04/06 07:13:37;;;;;;;9.65;3.90;;;8.70;99.90;;;;;;5041011;28;20037;-91
2022/04/06 07:16:05;;;;;;;10.60;4.03;;;8.70;99.90;;;;;;5057432;28;20043;-90
2022/04/06 07:18:34;;;;;;;10.73;3.75;;;8.70;99.90;;;;;;5059733;28;20044;-90
2022/04/06 07:21:01;;;;;;;11.50;4.03;;;8.70;99.90;;;;;;5040131;28;20076;-90
2022/04/06 07:23:27;;;;;;;10.10;3.80;;;8.70;99.90;;;;;;5037297;28;20300;-90
2022/04/06 07:25:52;;;;;;;11.80;4.10;;;8.60;99.90;;;;;;5041233;28;20037;-92
2022/04/06 07:28:18;;;;;;;11.52;4.15;;;8.70;99.90;;;;;;5042800;28;20127;-90
2022/04/06 07:30:44;;;;;;;9.52;4.60;;;8.70;99.90;;;;;;5059035;28;20058;-89
2022/04/06 07:33:12;;;;;;;10.77;3.92;;;8.60;99.90;;;;;;5041081;28;20518;-92
2022/04/06 07:35:39;;;;;;;11.23;4.40;;;8.70;99.90;;;;;;5052208;28;20404;-89
2022/04/06 07:38:24;;;;;;;12.50;4.20;;;8.70;99.90;;;;;;5041534;28;20044;-90
2022/04/06 07:40:50;;;;;;;11.75;4.32;;;8.70;99.90;;;;;;5042477;28;20051;-91
2022/04/06 07:43:16;;;;;;;18.85;4.80;;;8.70;99.90;;;;;;5042572;28;20036;-90
2022/04/06 07:45:41;;;;;;;10.52;4.22;;;8.70;99.90;;;;;;5055989;28;20525;-90
2022/04/06 07:48:10;;;;;;;11.23;4.45;;;8.80;99.90;;;;;;5057630;28;20037;-92
2022/04/06 07:50:36;;;;;;;11.75;5.13;;;8.70;99.90;;;;;;5057608;28;20054;-90
2022/04/06 07:53:02;;;;;;;15.25;4.72;;;8.80;99.90;;;;;;5058444;28;20131;-91
2022/04/06 07:55:28;;;;;;;14.18;4.60;;;8.70;99.90;;;;;;5056815;28;20058;-90
2022/04/06 07:57:53;;;;;;;9.68;4.82;;;8.70;99.90;;;;;;5057714;28;20047;-91
2022/04/06 08:00:19;;;;;;;14.23;4.72;;;8.70;99.90;;;;;;5042070;28;20052;-90
2022/04/06 08:02:49;;;;;;;17.88;4.55;;;8.60;99.90;;;;;;5041451;28;20075;-90
2022/04/06 08:05:16;;;;;;;16.02;4.45;;;8.70;99.90;;;;;;5059273;28;20113;-90
2022/04/06 08:07:45;;;;;;;10.27;4.30;;;8.60;99.90;;;;;;5041594;28;20314;-90
2022/04/06 08:10:14;;;;;;;13.32;4.32;;;8.70;99.90;;;;;;5077747;28;20571;-89
2022/04/06 08:12:40;;;;;;;13.25;4.32;;;8.80;99.90;;;;;;5040047;28;20044;-90
2022/04/06 08:15:08;;;;;;;16.25;4.97;;;8.80;99.90;;;;;;5061751;28;20044;-90
2022/04/06 08:17:41;;;;;;;16.63;4.40;;;8.90;99.90;;;;;;5059582;28;20040;-89
2022/04/06 08:20:09;;;;;;;11.68;4.60;;;8.90;99.90;;;;;;5042750;28;20151;-89
2022/04/06 08:22:35;;;;;;;12.30;4.72;;;8.90;99.90;;;;;;5060126;28;20049;-89
2022/04/06 08:25:14;;;;;;;15.25;4.88;;;9.00;99.90;;;;;;5071901;28;20049;-90
2022/04/06 08:27:46;;;;;;;11.55;4.68;;;9.00;99.90;;;;;;5041222;28;20040;-89
2022/04/06 08:30:12;;;;;;;16.80;4.97;;;8.90;99.90;;;;;;5046302;28;20158;-90
2022/04/06 08:32:41;;;;;;;11.65;3.80;;;9.00;99.90;;;;;;5045510;28;20414;-91
2022/04/06 08:35:12;;;;;;;7.90;4.00;;;9.10;99.90;;;;;;5053282;28;20056;-90
2022/04/06 08:37:39;;;;;;;8.77;3.92;;;9.00;99.90;;;;;;5060707;28;20108;-90
2022/04/06 08:40:13;;;;;;;11.15;3.72;;;9.00;99.90;;;;;;5060614;28;20522;-90
2022/04/06 08:42:45;;;;;;;9.73;3.67;;;9.10;99.90;;;;;;5061139;28;20028;-90
2022/04/06 08:45:19;;;;;;;10.52;4.13;;;8.90;99.90;;;;;;5058993;28;20484;-90
2022/04/06 08:47:48;;;;;;;12.68;4.78;;;8.90;99.90;;;;;;5058827;28;20032;-91
2022/04/06 08:50:16;;;;;;;14.65;4.00;;;9.10;99.90;;;;;;5059019;28;20098;-90
2022/04/06 08:52:42;;;;;;;12.20;3.90;;;9.00;99.90;;;;;;5059183;28;20454;-91
2022/04/06 08:55:08;;;;;;;12.88;4.45;;;9.10;99.90;;;;;;5060791;28;20071;-92
2022/04/06 08:57:37;;;;;;;8.30;4.43;;;9.10;99.90;;;;;;5057495;28;20056;-91
2022/04/06 09:00:05;;;;;;;10.95;4.13;;;9.10;99.90;;;;;;5045162;28;20041;-89
2022/04/06 09:02:33;;;;;;;7.75;3.33;;;9.20;99.90;;;;;;5058619;28;20044;-92
2022/04/06 09:05:02;;;;;;;10.43;4.10;;;9.30;99.90;;;;;;5045394;28;20048;-90
2022/04/06 09:07:31;;;;;;;13.02;4.25;;;9.40;99.90;;;;;;5046012;28;20518;-90
2022/04/06 09:09:57;;;;;;;9.63;3.67;;;9.50;99.90;;;;;;5039054;28;20056;-90
2022/04/06 09:12:25;;;;;;;11.15;4.00;;;9.50;99.90;;;;;;5045267;28;20044;-91
2022/04/06 09:15:08;;;;;;;9.68;3.95;;;9.60;99.90;;;;;;5043521;28;20032;-90
2022/04/06 09:17:45;;;;;;;11.77;4.03;;;9.70;99.90;;;;;;5056176;28;20040;-90
2022/04/06 09:20:12;;;;;;;10.07;4.15;;;9.80;99.90;;;;;;5056127;28;20032;-91
2022/04/06 09:22:38;;;;;;;11.32;3.42;;;9.80;99.90;;;;;;5053477;28;20040;-91
2022/04/06 09:25:05;;;;;;;11.35;4.13;;;9.80;99.90;;;;;;5034028;28;20494;-92
2022/04/06 09:27:39;;;;;;;12.35;3.85;;;9.90;99.90;;;;;;5035254;28;20044;-91
2022/04/06 09:30:07;;;;;;;16.55;4.45;;;9.90;99.90;;;;;;5049822;28;20043;-92
2022/04/06 09:32:33;;;;;;;10.48;3.80;;;9.90;99.90;;;;;;5037054;28;20037;-91
2022/04/06 09:34:59;;;;;;;15.27;4.03;;;9.90;99.90;;;;;;5054328;28;20047;-91
2022/04/06 09:37:29;;;;;;;11.73;3.95;;;10.10;99.90;;;;;;5055285;28;20199;-91
2022/04/06 09:39:57;;;;;;;15.23;3.63;;;10.10;99.90;;;;;;5051084;28;20049;-91
2022/04/06 09:42:25;;;;;;;14.02;3.80;;;10.00;99.90;;;;;;5043229;28;20052;-91
2022/04/06 09:47:40;;;;;;;10.30;3.83;;;10.10;99.90;;;;;;5056286;28;20340;-90
2022/04/06 09:50:17;;;;;;;10.32;3.60;;;10.20;99.90;;;;;;5040609;28;20040;-91
2022/04/06 09:52:44;;;;;;;9.43;3.95;;;10.30;99.90;;;;;;5057274;28;20048;-91
2022/04/06 09:55:14;;;;;;;11.65;4.13;;;10.40;99.90;;;;;;5040846;28;20349;-91
2022/04/06 09:57:45;;;;;;;11.38;4.00;;;10.30;99.90;;;;;;5058288;28;20048;-90
2022/04/06 10:00:18;;;;;;;14.48;3.85;;;10.40;99.90;;;;;;5059748;28;20036;-91
2022/04/06 10:02:51;;;;;;;11.85;3.88;;;10.30;99.90;;;;;;5042935;28;20071;-91
2022/04/06 10:05:19;;;;;;;10.88;4.00;;;10.20;99.90;;;;;;5039403;28;20052;-91
2022/04/06 10:07:51;;;;;;;12.57;4.30;;;10.20;99.90;;;;;;5053242;28;20044;-91
2022/04/06 10:10:17;;;;;;;15.45;4.13;;;10.10;99.90;;;;;;5041236;28;20396;-91
2022/04/06 10:12:43;;;;;;;11.02;4.20;;;10.10;99.90;;;;;;5049707;28;21944;-92
2022/04/06 10:15:10;;;;;;;9.85;4.25;;;10.10;99.90;;;;;;5060395;28;20040;-90
2022/04/06 10:17:36;;;;;;;14.50;4.70;;;10.00;99.90;;;;;;5042573;28;20079;-90
2022/04/06 10:20:27;;;;;;;12.27;4.22;;;10.00;99.90;;;;;;5058884;28;20082;-90
2022/04/06 10:23:05;;;;;;;12.57;4.80;;;10.00;99.90;;;;;;5056058;28;20139;-91
2022/04/06 10:25:42;;;;;;;12.85;4.63;;;10.00;99.90;;;;;;5054111;28;20123;-91
2022/04/06 10:28:11;;;;;;;15.32;5.25;;;10.00;99.90;;;;;;5054744;28;20419;-91
2022/04/06 10:30:38;;;;;;;13.45;4.82;;;10.10;99.90;;;;;;5056814;28;20577;-91
2022/04/06 10:33:21;;;;;;;15.57;5.00;;;10.00;99.90;;;;;;5038852;28;20039;-90
2022/04/06 10:35:47;;;;;;;12.13;4.40;;;10.10;99.90;;;;;;5067000;28;20048;-91
2022/04/06 10:38:16;;;;;;;17.00;5.22;;;10.10;99.90;;;;;;5038562;28;20070;-91
2022/04/06 10:40:45;;;;;;;12.38;5.32;;;10.20;99.90;;;;;;5040330;28;20578;-91
2022/04/06 10:43:40;;;;;;;12.50;5.13;;;10.10;99.90;;;;;;5043800;28;20041;-91
2022/04/06 10:46:18;;;;;;;13.10;4.40;;;10.10;99.90;;;;;;5055711;28;20041;-90
2022/04/06 10:48:57;;;;;;;17.42;5.63;;;10.10;99.90;;;;;;5035441;28;20043;-91
2022/04/06 10:51:28;;;;;;;16.00;5.53;;;10.10;99.90;;;;;;5037557;28;20098;-91
2022/04/06 10:53:54;;;;;;;18.27;6.88;;;10.10;99.90;;;;;;5034728;28;20055;-91
2022/04/06 10:56:22;;;;;;;18.25;6.25;;;10.10;99.90;;;;;;5039121;28;20044;-91
2022/04/06 10:58:54;;;;;;;15.77;5.95;;;10.00;99.90;;;;;;5043051;28;20472;-92
2022/04/06 11:01:29;;;;;;;16.95;5.55;;;10.00;99.90;;;;;;5039429;28;20044;-92
2022/04/06 11:04:00;;;;;;;15.90;5.45;;;10.00;99.90;;;;;;5056487;28;20098;-92
2022/04/06 11:06:44;;;;;;;14.55;5.70;;;10.10;99.90;;;;;;5043438;28;20371;-91
2022/04/06 11:12:30;;;;;;;19.95;6.75;;;10.20;99.90;;;;;;5057493;28;20058;-91
2022/04/06 11:14:59;;;;;;;19.33;5.60;;;10.20;99.90;;;;;;5048960;28;20562;-92
2022/04/06 11:17:42;;;;;;;17.55;5.97;;;10.20;99.90;;;;;;5060285;28;20527;-92
2022/04/06 11:20:29;;;;;;;14.30;5.13;;;10.20;99.90;;;;;;5058201;28;20044;-92
2022/04/06 11:22:57;;;;;;;18.00;5.75;;;10.20;99.90;;;;;;5050110;28;20101;-92
2022/04/06 11:25:26;;;;;;;20.20;5.57;;;10.20;99.90;;;;;;5037386;28;20028;-91
2022/04/06 11:27:54;;;;;;;14.32;5.80;;;10.40;99.90;;;;;;5041680;28;20040;-91
2022/04/06 11:30:22;;;;;;;22.80;6.63;;;10.50;99.90;;;;;;5039871;28;20048;-92
2022/04/06 11:32:55;;;;;;;15.82;6.30;;;10.60;99.90;;;;;;5053238;28;20193;-92
2022/04/06 11:35:26;;;;;;;17.17;6.32;;;10.80;99.90;;;;;;5050026;28;20425;-91
2022/04/06 11:37:52;;;;;;;16.65;6.55;;;11.00;99.90;;;;;;5053633;28;20057;-92
2022/04/06 11:40:20;;;;;;;13.95;6.63;;;11.20;99.90;;;;;;5043303;28;21048;-91
2022/04/06 11:42:50;;;;;;;15.45;5.60;;;11.20;99.90;;;;;;5044625;28;20112;-91
2022/04/06 11:45:20;;;;;;;15.35;5.90;;;11.00;99.90;;;;;;5061855;28;20421;-92
2022/04/06 11:47:58;;;;;;;17.42;7.07;;;11.10;99.90;;;;;;5048774;28;20040;-91
2022/04/06 11:50:35;;;;;;;13.40;6.00;;;11.10;99.90;;;;;;5061169;28;20041;-91
2022/04/06 11:53:15;;;;;;;19.23;6.13;;;11.40;99.90;;;;;;5043205;28;20119;-91
2022/04/06 11:55:54;;;;;;;15.35;5.78;;;11.50;99.90;;;;;;5036845;28;20025;-92
2022/04/06 11:58:40;;;;;;;13.68;5.55;;;11.60;99.90;;;;;;5045334;28;20092;-91
2022/04/06 12:01:17;;;;;;;16.23;5.28;;;11.80;99.90;;;;;;5060074;28;20193;-91
2022/04/06 12:03:45;;;;;;;13.82;4.63;;;11.90;99.90;;;;;;5045862;28;20025;-90
2022/04/06 12:06:16;;;;;;;12.00;5.25;;;12.10;99.90;;;;;;5060648;28;20043;-91
2022/04/06 12:08:43;;;;;;;15.73;4.78;;;12.40;99.90;;;;;;5057702;28;20048;-91
2022/04/06 12:11:13;;;;;;;10.80;4.75;;;12.30;99.90;;;;;;5056509;28;20632;-91
2022/04/06 12:13:40;;;;;;;12.23;5.13;;;12.20;99.90;;;;;;5045264;28;20032;-92
2022/04/06 12:16:07;;;;;;;11.07;4.40;;;12.00;58.90;;;;;;5041986;28;20074;-92
2022/04/06 12:18:37;;;;;;;13.98;4.93;;;12.00;99.90;;;;;;5045314;28;20162;-92
2022/04/06 12:21:03;;;;;;;12.38;5.20;;;12.00;99.90;;;;;;5061237;28;20127;-92
2022/04/06 12:23:29;;;;;;;14.20;5.22;;;12.00;99.90;;;;;;5044675;28;20146;-91
2022/04/06 12:25:59;;;;;;;15.50;4.18;;;12.10;99.90;;;;;;5033446;28;20163;-89
2022/04/06 12:28:28;;;;;;;12.82;3.55;;;11.90;99.90;;;;;;5056236;28;20058;-90
2022/04/06 12:30:55;;;;;;;18.35;3.40;;;11.80;1.00;;;;;;5069446;28;20353;-91
2022/04/06 12:33:50;;;;;;;18.17;3.88;;;11.70;45.60;;;;;;5041287;28;20115;-91
2022/04/06 12:36:25;;;;;;;12.13;4.25;;;11.70;99.90;;;;;;5052509;28;20237;-90
2022/04/06 12:39:10;;;;;;;16.60;4.07;;;11.80;99.90;;;;;;5055842;28;20120;-91
2022/04/06 12:42:02;;;;;;;11.75;3.50;;;11.90;61.00;;;;;;5056354;28;20091;-91
2022/04/06 12:44:32;;;;;;;11.00;3.83;;;12.30;1.00;;;;;;5035217;28;20037;-90
2022/04/06 12:46:59;;;;;;;9.50;3.00;;;12.20;1.00;;;;;;5043406;28;20465;-92
2022/04/06 12:49:35;;;;;;;13.10;2.80;;;12.20;99.90;;;;;;5036286;28;20436;-92
2022/04/06 12:52:14;;;;;;;7.22;3.03;;;12.30;99.90;;;;;;5051958;28;20036;-91
2022/04/06 12:54:42;;;;;;;9.73;3.40;;;12.50;1.00;;;;;;5051272;28;20043;-92
2022/04/06 12:57:16;;;;;;;11.45;3.40;;;12.60;99.90;;;;;;5041750;28;20036;-91
2022/04/06 12:59:45;;;;;;;13.27;3.65;;;12.70;99.90;;;;;;5036419;28;20040;-91
2022/04/06 13:02:24;;;;;;;12.98;3.33;;;12.70;99.90;;;;;;5052498;28;20041;-91
2022/04/06 13:05:14;;;;;;;11.07;3.22;;;12.90;99.90;;;;;;5041930;28;20072;-90
2022/04/06 13:07:42;;;;;;;12.55;3.30;;;12.80;99.90;;;;;;5043425;28;20048;-91